Time;durP1;ratioP1;P1;durP2;ratioP2;P2;SDS_P1;SDS_P2;PMS_P1;PMS_P2;Temp;Humidity;BMP_temperature;BMP_pressure;BME280_temperature;BME280_humidity;BME280_pressure;Samples;Min_cycle;Max_cycle;Signal;HPM_P1;HPM_P2
2024/04/07 00:02:17;;;;;;;12.73;8.48;;;9.70;99.90;;;;;;4918113;29;20111;-76
2024/04/07 00:04:43;;;;;;;14.10;8.68;;;9.60;99.90;;;;;;4917992;29;20027;-76
2024/04/07 00:07:09;;;;;;;12.57;8.32;;;9.60;99.90;;;;;;4916279;29;20062;-77
2024/04/07 00:09:37;;;;;;;14.02;8.00;;;9.50;99.90;;;;;;4917322;29;20156;-76
2024/04/07 00:12:04;;;;;;;10.15;7.88;;;9.50;99.90;;;;;;4918032;29;20035;-76
2024/04/07 00:14:30;;;;;;;13.95;9.30;;;9.60;99.90;;;;;;4915810;29;20024;-76
2024/04/07 00:16:56;;;;;;;13.75;8.40;;;9.40;99.90;;;;;;4916072;29;20024;-76
2024/04/07 00:19:22;;;;;;;9.02;7.60;;;9.40;99.90;;;;;;4909395;29;20031;-76
2024/04/07 00:21:47;;;;;;;11.00;7.70;;;9.30;99.90;;;;;;4916425;29;20028;-76
2024/04/07 00:24:13;;;;;;;9.57;7.18;;;9.30;99.90;;;;;;4916993;29;20032;-76
2024/04/07 00:26:39;;;;;;;9.80;7.22;;;9.30;99.90;;;;;;4916408;29;20101;-76
2024/04/07 00:29:04;;;;;;;11.13;7.72;;;9.30;99.90;;;;;;4917016;29;20443;-76
2024/04/07 00:31:30;;;;;;;9.00;7.30;;;9.30;99.90;;;;;;4918038;29;20466;-76
2024/04/07 00:33:55;;;;;;;11.95;7.53;;;9.30;99.90;;;;;;4915898;29;20028;-76
2024/04/07 00:36:21;;;;;;;12.38;7.85;;;9.30;99.90;;;;;;4916365;29;20048;-76
2024/04/07 00:38:47;;;;;;;13.55;8.18;;;9.30;99.90;;;;;;4917287;29;20087;-76
2024/04/07 00:41:13;;;;;;;9.13;7.40;;;9.30;99.90;;;;;;4916225;29;20107;-76
2024/04/07 00:43:40;;;;;;;11.50;7.50;;;9.30;99.90;;;;;;4917492;29;20156;-76
2024/04/07 00:46:06;;;;;;;12.38;8.32;;;9.30;99.90;;;;;;4914720;29;20033;-75
2024/04/07 00:48:32;;;;;;;11.38;7.97;;;9.30;99.90;;;;;;4915924;29;20111;-76
2024/04/07 00:50:59;;;;;;;14.25;7.43;;;9.30;99.90;;;;;;4917305;29;20033;-76
2024/04/07 00:53:26;;;;;;;12.35;7.72;;;9.30;99.90;;;;;;4915608;29;20037;-76
2024/04/07 00:55:52;;;;;;;14.27;8.77;;;9.30;99.90;;;;;;4916964;29;20068;-76
2024/04/07 00:58:18;;;;;;;10.73;7.03;;;9.20;99.90;;;;;;4916073;29;20099;-76
2024/04/07 01:00:45;;;;;;;10.43;7.20;;;9.30;99.90;;;;;;4916877;29;20036;-76
2024/04/07 01:03:12;;;;;;;9.95;6.97;;;9.20;99.90;;;;;;4913987;29;20028;-75
2024/04/07 01:05:48;;;;;;;8.30;7.45;;;9.20;99.90;;;;;;4916674;29;20032;-75
2024/04/07 01:08:16;;;;;;;11.05;8.02;;;9.20;99.90;;;;;;4904735;29;20032;-73
2024/04/07 01:10:42;;;;;;;8.07;7.03;;;9.10;99.90;;;;;;4917332;29;20031;-74
2024/04/07 01:13:09;;;;;;;9.25;7.15;;;9.10;99.90;;;;;;4914090;29;20509;-74
2024/04/07 01:15:36;;;;;;;9.88;7.40;;;9.10;99.90;;;;;;4915929;29;20417;-74
2024/04/07 01:18:02;;;;;;;11.68;7.70;;;9.00;99.90;;;;;;4906380;29;20090;-74
2024/04/07 01:20:29;;;;;;;12.70;7.00;;;9.10;99.90;;;;;;4914009;29;20036;-73
2024/04/07 01:22:55;;;;;;;9.90;7.18;;;9.00;99.90;;;;;;4909750;29;20028;-73
2024/04/07 01:25:21;;;;;;;10.73;7.80;;;9.10;99.90;;;;;;4915919;29;20111;-74
2024/04/07 01:27:54;;;;;;;11.25;7.47;;;9.10;99.90;;;;;;4914701;29;20522;-74
2024/04/07 01:30:20;;;;;;;11.30;8.27;;;9.00;99.90;;;;;;4927082;29;20036;-74
2024/04/07 01:32:45;;;;;;;12.85;8.10;;;9.00;99.90;;;;;;4908237;29;20039;-73
2024/04/07 01:35:11;;;;;;;11.70;7.88;;;9.00;99.90;;;;;;4915957;29;20075;-74
2024/04/07 01:37:37;;;;;;;10.88;7.53;;;9.00;99.90;;;;;;4915483;29;20023;-73
2024/04/07 01:40:03;;;;;;;10.55;7.88;;;9.00;99.90;;;;;;4914982;29;20032;-73
2024/04/07 01:42:30;;;;;;;11.20;7.32;;;9.00;99.90;;;;;;4914040;29;20024;-73
2024/04/07 01:44:56;;;;;;;8.82;7.10;;;8.90;99.90;;;;;;4916051;29;20043;-74
2024/04/07 01:47:21;;;;;;;11.00;7.00;;;8.90;99.90;;;;;;4916063;29;20040;-73
2024/04/07 01:49:50;;;;;;;10.63;7.10;;;8.90;99.90;;;;;;4916029;29;20032;-74
2024/04/07 01:52:16;;;;;;;14.23;7.70;;;8.90;99.90;;;;;;4916666;29;20063;-75
2024/04/07 01:54:42;;;;;;;8.40;7.32;;;8.80;99.90;;;;;;4915561;29;20047;-73
2024/04/07 01:57:08;;;;;;;7.93;6.80;;;8.80;99.90;;;;;;4914667;29;20036;-73
2024/04/07 01:59:34;;;;;;;11.40;9.05;;;8.70;99.90;;;;;;4915284;29;20036;-73
2024/04/07 02:02:00;;;;;;;10.88;8.60;;;8.70;99.90;;;;;;4915556;29;20027;-75
2024/04/07 02:04:27;;;;;;;10.85;7.95;;;8.70;99.90;;;;;;4916319;29;20016;-75
2024/04/07 02:06:53;;;;;;;11.45;8.23;;;8.70;99.90;;;;;;4915957;29;20111;-74
2024/04/07 02:09:20;;;;;;;11.52;8.20;;;8.70;99.90;;;;;;4914278;29;20817;-76
2024/04/07 02:11:46;;;;;;;11.02;7.75;;;8.80;99.90;;;;;;4914211;29;20044;-75
2024/04/07 02:14:12;;;;;;;10.07;7.65;;;8.80;99.90;;;;;;4915564;29;20495;-75
2024/04/07 02:16:38;;;;;;;11.20;7.57;;;8.70;99.90;;;;;;4915963;29;20046;-76
2024/04/07 02:19:03;;;;;;;16.17;8.18;;;8.70;99.90;;;;;;4915460;29;20450;-76
2024/04/07 02:21:29;;;;;;;9.07;8.13;;;8.70;99.90;;;;;;4914932;29;20446;-76
2024/04/07 02:23:54;;;;;;;12.18;8.43;;;8.60;99.90;;;;;;4914035;29;20048;-75
2024/04/07 02:26:21;;;;;;;10.82;8.43;;;8.70;99.90;;;;;;4915280;29;20036;-75
2024/04/07 02:28:47;;;;;;;12.90;7.97;;;8.60;99.90;;;;;;4914527;29;20042;-75
2024/04/07 02:31:13;;;;;;;11.98;8.35;;;8.60;99.90;;;;;;4915453;29;20024;-75
2024/04/07 02:33:41;;;;;;;9.55;7.88;;;8.60;99.90;;;;;;4915644;29;20028;-74
2024/04/07 02:36:07;;;;;;;9.98;8.15;;;8.60;99.90;;;;;;4913936;29;20052;-75
2024/04/07 02:38:33;;;;;;;11.25;7.95;;;8.60;99.90;;;;;;4914068;29;21587;-76
2024/04/07 02:40:59;;;;;;;11.00;8.55;;;8.50;99.90;;;;;;4914913;29;20054;-76
2024/04/07 02:43:24;;;;;;;11.73;9.23;;;8.50;99.90;;;;;;4914871;29;20155;-76
2024/04/07 02:48:34;;;;;;;13.70;7.32;;;8.40;99.90;;;;;;4915803;29;20047;-76
2024/04/07 02:51:00;;;;;;;10.27;8.00;;;8.40;99.90;;;;;;4915063;29;20036;-75
2024/04/07 02:53:26;;;;;;;12.38;8.43;;;8.30;99.90;;;;;;4915328;29;20103;-75
2024/04/07 02:55:51;;;;;;;10.60;7.93;;;8.30;99.90;;;;;;4913663;29;20032;-76
2024/04/07 02:58:17;;;;;;;12.88;8.90;;;8.30;99.90;;;;;;4916059;29;20032;-76
2024/04/07 03:00:42;;;;;;;15.13;8.45;;;8.30;99.90;;;;;;4915054;29;20032;-76
2024/04/07 03:03:08;;;;;;;12.98;8.50;;;8.30;99.90;;;;;;4915385;29;20037;-75
2024/04/07 03:05:38;;;;;;;11.75;9.15;;;8.30;99.90;;;;;;4915108;29;20051;-76
2024/04/07 03:08:05;;;;;;;11.73;8.52;;;8.40;99.90;;;;;;4913989;29;20478;-76
2024/04/07 03:10:31;;;;;;;14.02;8.60;;;8.40;99.90;;;;;;4915133;29;20103;-75
2024/04/07 03:12:56;;;;;;;8.88;7.97;;;8.30;99.90;;;;;;4915330;29;20487;-76
2024/04/07 03:15:22;;;;;;;14.35;8.48;;;8.20;99.90;;;;;;4913569;29;20422;-76
2024/04/07 03:17:47;;;;;;;10.40;8.70;;;8.20;99.90;;;;;;4914781;29;20147;-75
2024/04/07 03:20:13;;;;;;;11.70;8.52;;;8.10;99.90;;;;;;4914901;29;20383;-75
2024/04/07 03:22:39;;;;;;;13.80;8.48;;;8.20;99.90;;;;;;4915436;29;20043;-76
2024/04/07 03:25:05;;;;;;;11.05;8.82;;;8.20;99.90;;;;;;4913729;29;20490;-76
2024/04/07 03:27:30;;;;;;;11.45;8.35;;;8.30;99.90;;;;;;4913004;29;20036;-76
2024/04/07 03:29:56;;;;;;;14.30;8.70;;;8.30;99.90;;;;;;4915156;29;20052;-76
2024/04/07 03:32:22;;;;;;;15.23;9.07;;;8.30;99.90;;;;;;4917910;29;20040;-76
2024/04/07 03:34:47;;;;;;;12.20;8.07;;;8.40;99.90;;;;;;4918290;29;20390;-76
2024/04/07 03:37:13;;;;;;;16.17;8.80;;;8.40;99.90;;;;;;4919051;29;20028;-75
2024/04/07 03:39:39;;;;;;;11.02;8.98;;;8.50;99.90;;;;;;4916723;29;20088;-76
2024/04/07 03:42:05;;;;;;;14.18;11.00;;;8.60;99.90;;;;;;4918184;29;20028;-74
2024/04/07 03:44:34;;;;;;;12.25;9.10;;;8.70;99.90;;;;;;4918441;29;20581;-74
2024/04/07 03:47:00;;;;;;;14.07;10.38;;;8.80;99.90;;;;;;4918337;29;20518;-74
2024/04/07 03:49:27;;;;;;;14.23;9.70;;;8.90;99.90;;;;;;4918423;29;20093;-74
2024/04/07 03:51:52;;;;;;;10.25;9.13;;;9.00;99.90;;;;;;4918268;29;20513;-74
2024/04/07 03:54:19;;;;;;;15.98;9.93;;;9.00;99.90;;;;;;4917860;29;20032;-75
2024/04/07 03:56:45;;;;;;;10.57;9.13;;;9.10;99.90;;;;;;4918123;29;20124;-76
2024/04/07 03:59:11;;;;;;;10.80;9.15;;;9.10;99.90;;;;;;4918246;29;20136;-76
2024/04/07 04:01:39;;;;;;;12.82;8.57;;;9.00;99.90;;;;;;4918440;29;20474;-76
2024/04/07 04:04:06;;;;;;;12.68;9.32;;;9.00;99.90;;;;;;4917006;29;20171;-76
2024/04/07 04:06:31;;;;;;;14.60;10.15;;;9.00;99.90;;;;;;4917512;29;20039;-76
2024/04/07 04:08:57;;;;;;;12.98;9.52;;;9.10;99.90;;;;;;4916680;29;20032;-76
2024/04/07 04:11:23;;;;;;;14.75;9.50;;;9.20;99.90;;;;;;4917721;28;20562;-76
2024/04/07 04:13:50;;;;;;;10.85;9.45;;;9.20;99.90;;;;;;4917694;29;20028;-76
2024/04/07 04:16:18;;;;;;;15.57;10.40;;;9.20;99.90;;;;;;4918007;29;20438;-75
2024/04/07 04:18:44;;;;;;;16.10;10.18;;;9.30;99.90;;;;;;4916472;29;20043;-76
2024/04/07 04:21:10;;;;;;;20.00;10.25;;;9.30;99.90;;;;;;4917490;29;20040;-76
2024/04/07 04:23:37;;;;;;;11.90;8.93;;;9.40;99.90;;;;;;4917448;29;20060;-76
2024/04/07 04:26:03;;;;;;;11.65;8.98;;;9.40;99.90;;;;;;4916346;29;20059;-75
2024/04/07 04:28:29;;;;;;;13.55;9.45;;;9.40;99.90;;;;;;4917440;29;20513;-75
2024/04/07 04:31:01;;;;;;;15.27;10.05;;;9.50;99.90;;;;;;4916389;29;20063;-75
2024/04/07 04:33:27;;;;;;;11.02;9.73;;;9.60;99.90;;;;;;4916001;29;20028;-76
2024/04/07 04:35:54;;;;;;;13.85;10.05;;;9.70;99.90;;;;;;4917028;29;20499;-76
2024/04/07 04:38:20;;;;;;;10.82;9.15;;;9.70;99.90;;;;;;4916435;29;20028;-75
2024/04/07 04:40:56;;;;;;;15.48;9.45;;;9.80;99.90;;;;;;4916805;29;20089;-76
2024/04/07 04:43:24;;;;;;;11.60;9.90;;;9.90;99.90;;;;;;4915430;29;20112;-74
2024/04/07 04:46:03;;;;;;;14.70;9.63;;;9.90;99.90;;;;;;4915987;29;20036;-75
2024/04/07 04:48:31;;;;;;;14.85;9.88;;;10.10;99.90;;;;;;4917215;29;20040;-76
2024/04/07 04:50:56;;;;;;;12.40;9.30;;;10.20;99.90;;;;;;4916013;29;20052;-76
2024/04/07 04:53:22;;;;;;;9.63;8.63;;;10.20;99.90;;;;;;4917031;29;20067;-76
2024/04/07 04:55:47;;;;;;;9.90;8.10;;;10.40;99.90;;;;;;4916867;29;20044;-76
2024/04/07 04:58:13;;;;;;;11.18;7.68;;;10.40;99.90;;;;;;4917506;29;20542;-75
2024/04/07 05:00:39;;;;;;;13.15;8.85;;;10.50;99.90;;;;;;4915642;29;20021;-75
2024/04/07 05:03:04;;;;;;;12.00;8.82;;;10.60;99.90;;;;;;4916604;29;20033;-75
2024/04/07 05:05:30;;;;;;;9.73;8.02;;;10.60;99.90;;;;;;4916046;29;20430;-75
2024/04/07 05:07:56;;;;;;;14.10;8.77;;;10.70;99.90;;;;;;4916932;29;20028;-76
2024/04/07 05:10:21;;;;;;;12.07;8.48;;;10.70;99.90;;;;;;4917228;29;20024;-76
2024/04/07 05:12:47;;;;;;;10.00;7.93;;;10.80;99.90;;;;;;4916662;29;20032;-76
2024/04/07 05:15:13;;;;;;;8.98;7.60;;;10.90;99.90;;;;;;4916572;29;20048;-76
2024/04/07 05:17:38;;;;;;;9.13;7.57;;;10.90;99.90;;;;;;4912136;29;20051;-74
2024/04/07 05:20:04;;;;;;;10.40;8.18;;;11.00;99.90;;;;;;4913418;29;20052;-76
2024/04/07 05:22:31;;;;;;;8.75;7.47;;;11.10;99.90;;;;;;4914381;29;20512;-75
2024/04/07 05:24:57;;;;;;;8.95;7.20;;;11.10;99.90;;;;;;4912299;29;20104;-74
2024/04/07 05:27:23;;;;;;;8.15;6.78;;;11.20;99.90;;;;;;4915281;29;20140;-74
2024/04/07 05:29:48;;;;;;;11.63;7.45;;;11.20;99.90;;;;;;4916347;29;20036;-74
2024/04/07 05:32:14;;;;;;;8.35;6.80;;;11.40;99.90;;;;;;4915134;29;20029;-75
2024/04/07 05:34:40;;;;;;;10.57;7.35;;;11.40;99.90;;;;;;4912502;29;20035;-75
2024/04/07 05:37:06;;;;;;;11.05;7.03;;;11.60;99.90;;;;;;4904764;29;20040;-75
2024/04/07 05:39:32;;;;;;;10.07;7.22;;;11.70;99.90;;;;;;4912154;29;20036;-75
2024/04/07 05:41:59;;;;;;;11.10;6.25;;;11.80;99.90;;;;;;4914262;29;20044;-75
2024/04/07 05:44:25;;;;;;;9.00;5.95;;;12.00;99.90;;;;;;4914224;29;20442;-75
2024/04/07 05:46:51;;;;;;;8.40;5.95;;;12.30;99.90;;;;;;4913513;29;20067;-76
2024/04/07 05:49:17;;;;;;;7.63;5.97;;;12.50;99.90;;;;;;4914451;29;20028;-75
2024/04/07 05:51:44;;;;;;;7.45;5.78;;;12.70;99.90;;;;;;4912989;29;20096;-76
2024/04/07 05:54:09;;;;;;;7.03;5.70;;;12.80;99.90;;;;;;4909827;29;20150;-75
2024/04/07 05:56:35;;;;;;;7.50;5.53;;;13.00;99.90;;;;;;4912024;29;20123;-75
2024/04/07 05:59:01;;;;;;;6.25;4.97;;;13.10;99.90;;;;;;4912341;29;20487;-76
2024/04/07 06:01:28;;;;;;;9.52;6.28;;;13.30;99.90;;;;;;4916586;29;20107;-76
2024/04/07 06:03:53;;;;;;;8.57;6.10;;;13.50;99.90;;;;;;4912687;29;20059;-76
2024/04/07 06:06:19;;;;;;;12.60;6.43;;;13.70;99.90;;;;;;4914902;29;20446;-76
2024/04/07 06:08:44;;;;;;;7.47;5.10;;;13.90;99.90;;;;;;4904333;29;20036;-76
2024/04/07 06:11:10;;;;;;;6.63;5.55;;;14.10;99.90;;;;;;4911931;29;20032;-76
2024/04/07 06:13:35;;;;;;;9.35;5.50;;;14.20;99.90;;;;;;4912415;29;20024;-76
2024/04/07 06:16:01;;;;;;;6.53;4.65;;;14.40;99.90;;;;;;4908119;29;20052;-76
2024/04/07 06:18:27;;;;;;;7.05;4.72;;;14.60;99.90;;;;;;4912841;29;20040;-76
2024/04/07 06:20:56;;;;;;;6.13;4.40;;;14.80;99.90;;;;;;4906760;29;20526;-77
2024/04/07 06:23:22;;;;;;;7.43;4.47;;;15.00;99.90;;;;;;4909669;29;20028;-76
2024/04/07 06:25:48;;;;;;;6.75;4.38;;;15.20;99.90;;;;;;4915169;29;20103;-75
2024/04/07 06:28:14;;;;;;;6.28;4.55;;;15.30;99.90;;;;;;4913623;29;20501;-76
2024/04/07 06:30:39;;;;;;;5.53;4.35;;;15.50;99.90;;;;;;4913431;29;20036;-76
2024/04/07 06:33:06;;;;;;;5.82;3.95;;;15.60;99.90;;;;;;4914143;29;20106;-76
2024/04/07 06:35:35;;;;;;;7.25;4.70;;;15.70;99.90;;;;;;4914048;29;20040;-77
2024/04/07 06:38:04;;;;;;;6.85;4.20;;;15.90;99.90;;;;;;4911580;29;20033;-76
2024/04/07 06:40:30;;;;;;;5.95;4.70;;;16.10;99.90;;;;;;4907245;29;20482;-77
2024/04/07 06:42:56;;;;;;;5.03;3.72;;;16.20;99.90;;;;;;4894892;29;20021;-76
2024/04/07 06:45:21;;;;;;;6.32;4.57;;;16.40;99.90;;;;;;4907947;29;20044;-77
2024/04/07 06:47:47;;;;;;;6.65;4.72;;;16.50;99.90;;;;;;4914921;29;20048;-78
2024/04/07 06:50:13;;;;;;;5.68;4.07;;;16.50;98.90;;;;;;4913908;29;20402;-76
2024/04/07 06:52:38;;;;;;;5.65;4.10;;;16.70;99.90;;;;;;4914078;29;20030;-76
2024/04/07 06:55:06;;;;;;;5.45;4.38;;;16.80;99.00;;;;;;4915066;29;20123;-76
2024/04/07 06:57:31;;;;;;;5.78;4.00;;;17.00;97.60;;;;;;4912554;29;20028;-76
2024/04/07 06:59:57;;;;;;;7.47;4.38;;;17.20;97.50;;;;;;4907056;29;20539;-76
2024/04/07 07:02:23;;;;;;;6.47;4.28;;;17.40;96.30;;;;;;4899490;29;20071;-76
2024/04/07 07:04:48;;;;;;;5.32;4.80;;;17.50;92.10;;;;;;4915194;29;20021;-77
2024/04/07 07:07:14;;;;;;;6.85;4.13;;;17.70;91.20;;;;;;4912743;29;20016;-77
2024/04/07 07:09:40;;;;;;;5.97;4.32;;;17.90;88.80;;;;;;4913154;29;20032;-78
2024/04/07 07:12:05;;;;;;;4.63;4.15;;;18.00;86.90;;;;;;4918902;29;20024;-77
2024/04/07 07:14:31;;;;;;;7.18;4.20;;;18.00;86.70;;;;;;4918822;29;20104;-78
2024/04/07 07:16:57;;;;;;;6.50;4.32;;;18.10;85.80;;;;;;4910539;29;20029;-79
2024/04/07 07:19:23;;;;;;;5.68;4.05;;;18.20;86.40;;;;;;4911636;29;20024;-78
2024/04/07 07:21:49;;;;;;;6.63;3.88;;;18.30;85.90;;;;;;4912670;29;20486;-78
2024/04/07 07:24:14;;;;;;;7.35;3.75;;;18.60;86.20;;;;;;4917384;29;20083;-79
2024/04/07 07:26:40;;;;;;;4.22;3.83;;;18.70;83.10;;;;;;4911609;29;20460;-78
2024/04/07 07:29:06;;;;;;;6.28;3.33;;;18.80;83.20;;;;;;4917123;29;20047;-79
2024/04/07 07:31:31;;;;;;;4.32;3.40;;;18.90;80.60;;;;;;4904849;29;20031;-77
2024/04/07 07:33:57;;;;;;;5.05;3.50;;;19.10;80.50;;;;;;4914813;29;20036;-76
2024/04/07 07:36:23;;;;;;;4.47;3.42;;;19.20;79.10;;;;;;4914771;29;20075;-77
2024/04/07 07:38:48;;;;;;;7.43;3.33;;;19.40;80.10;;;;;;4918375;29;20028;-76
2024/04/07 07:41:15;;;;;;;3.55;2.90;;;19.60;79.20;;;;;;4916620;29;20544;-77
2024/04/07 07:43:40;;;;;;;3.58;2.85;;;19.70;77.40;;;;;;4914450;29;20103;-77
2024/04/07 07:46:06;;;;;;;5.22;2.65;;;19.70;77.10;;;;;;4915697;29;20172;-77
2024/04/07 07:48:34;;;;;;;3.20;2.78;;;19.80;76.80;;;;;;4915788;29;20032;-76
2024/04/07 07:50:59;;;;;;;2.95;2.30;;;20.00;76.70;;;;;;4915154;29;20055;-76
2024/04/07 07:53:25;;;;;;;3.90;2.30;;;20.10;74.80;;;;;;4914804;29;20028;-76
2024/04/07 07:55:54;;;;;;;2.72;2.05;;;20.20;70.90;;;;;;4915984;29;20053;-77
2024/04/07 07:58:19;;;;;;;2.22;2.03;;;20.30;68.90;;;;;;4916628;29;20020;-77
2024/04/07 08:00:47;;;;;;;3.00;1.65;;;20.30;67.90;;;;;;4913618;29;20091;-76
2024/04/07 08:03:13;;;;;;;2.78;1.52;;;20.40;67.50;;;;;;4916433;29;20040;-76
2024/04/07 08:05:38;;;;;;;3.45;1.92;;;20.50;66.80;;;;;;4917776;29;20398;-76
2024/04/07 08:08:04;;;;;;;2.03;1.70;;;20.70;65.40;;;;;;4917643;29;20032;-77
2024/04/07 08:10:30;;;;;;;1.30;1.20;;;20.80;65.20;;;;;;4914682;29;20028;-77
2024/04/07 08:12:55;;;;;;;2.75;1.70;;;20.80;64.00;;;;;;4916048;29;20036;-76
2024/04/07 08:15:21;;;;;;;2.35;1.70;;;20.90;64.70;;;;;;4915066;29;20044;-77
2024/04/07 08:17:47;;;;;;;2.95;1.85;;;21.10;64.20;;;;;;4910275;29;20043;-77
2024/04/07 08:20:12;;;;;;;3.08;1.50;;;21.20;64.30;;;;;;4917092;29;20088;-77
2024/04/07 08:22:38;;;;;;;1.92;1.65;;;21.20;62.60;;;;;;4914220;29;20024;-77
2024/04/07 08:25:05;;;;;;;3.50;1.40;;;21.30;63.20;;;;;;4916501;29;20032;-76
2024/04/07 08:27:34;;;;;;;2.45;1.88;;;21.40;63.10;;;;;;4915388;29;20036;-77
2024/04/07 08:30:00;;;;;;;2.03;1.55;;;21.50;63.20;;;;;;4917114;29;20496;-77
2024/04/07 08:32:25;;;;;;;2.97;1.92;;;21.60;62.30;;;;;;4909936;29;20111;-76
2024/04/07 08:34:51;;;;;;;1.77;1.67;;;21.80;62.00;;;;;;4914549;29;20031;-77
2024/04/07 08:37:16;;;;;;;4.35;2.05;;;21.90;62.60;;;;;;4915525;29;20137;-77
2024/04/07 08:39:42;;;;;;;3.78;2.10;;;22.10;62.60;;;;;;4915462;29;20024;-77
2024/04/07 08:42:12;;;;;;;1.90;1.40;;;22.20;62.40;;;;;;4906058;29;20403;-77
2024/04/07 08:44:38;;;;;;;2.65;1.42;;;22.30;61.80;;;;;;4909384;29;20032;-77
2024/04/07 08:47:05;;;;;;;1.67;1.45;;;22.40;61.10;;;;;;4913770;29;20501;-77
2024/04/07 08:49:33;;;;;;;2.80;1.80;;;22.30;60.60;;;;;;4916794;29;20376;-77
2024/04/07 08:52:00;;;;;;;1.58;1.30;;;22.30;60.30;;;;;;4915941;29;20446;-77
2024/04/07 08:54:25;;;;;;;2.13;1.55;;;22.20;59.80;;;;;;4907253;29;20100;-77
2024/04/07 08:56:53;;;;;;;1.40;1.30;;;22.10;60.60;;;;;;4909725;29;20048;-76
2024/04/07 08:59:23;;;;;;;2.05;1.63;;;22.10;60.60;;;;;;4916350;29;20028;-79
2024/04/07 09:01:53;;;;;;;1.40;1.17;;;22.20;60.70;;;;;;4915435;29;20046;-77
2024/04/07 09:04:18;;;;;;;2.35;1.55;;;22.30;60.90;;;;;;4915804;29;20028;-78
2024/04/07 09:06:45;;;;;;;2.40;1.33;;;22.40;59.90;;;;;;4915298;29;20050;-77
2024/04/07 09:09:10;;;;;;;1.88;1.63;;;22.40;60.30;;;;;;4906239;29;20099;-77
2024/04/07 09:11:37;;;;;;;1.85;1.40;;;22.50;59.80;;;;;;4916732;29;20487;-77
2024/04/07 09:14:06;;;;;;;7.57;1.58;;;22.70;59.50;;;;;;4916160;29;20030;-76
2024/04/07 09:16:32;;;;;;;2.78;1.27;;;22.80;58.50;;;;;;4916605;29;20463;-77
2024/04/07 09:18:58;;;;;;;1.92;1.27;;;22.80;58.20;;;;;;4908088;29;20059;-77
2024/04/07 09:21:24;;;;;;;5.95;1.70;;;22.90;58.70;;;;;;4911208;29;20044;-76
2024/04/07 09:23:50;;;;;;;2.33;1.67;;;22.90;59.20;;;;;;4913417;29;20068;-77
2024/04/07 09:26:19;;;;;;;2.30;1.63;;;23.00;58.30;;;;;;4914795;29;20039;-77
2024/04/07 09:28:45;;;;;;;3.85;1.80;;;22.80;58.30;;;;;;4908039;29;20028;-78
2024/04/07 09:31:11;;;;;;;1.55;1.20;;;22.90;59.50;;;;;;4915999;29;20131;-77
2024/04/07 09:33:37;;;;;;;3.17;1.50;;;23.00;58.90;;;;;;4908251;29;20163;-78
2024/04/07 09:36:03;;;;;;;4.55;1.70;;;23.00;58.30;;;;;;4915644;29;20051;-78
2024/04/07 09:38:29;;;;;;;2.00;1.70;;;23.10;58.50;;;;;;4915800;29;20406;-79
2024/04/07 09:41:00;;;;;;;2.40;1.58;;;23.10;57.90;;;;;;4913248;29;20394;-79
2024/04/07 09:43:27;;;;;;;3.63;1.50;;;23.00;57.50;;;;;;4916260;29;20028;-78
2024/04/07 09:45:53;;;;;;;2.50;1.40;;;23.00;57.20;;;;;;4914057;29;20517;-79
2024/04/07 09:48:20;;;;;;;2.28;1.23;;;22.90;57.90;;;;;;4910865;29;20044;-78
2024/04/07 09:51:04;;;;;;;4.78;1.20;;;22.90;58.00;;;;;;4913046;29;20395;-78
2024/04/07 09:53:56;;;;;;;2.08;1.90;;;23.00;57.50;;;;;;4914058;29;20040;-77
2024/04/07 09:56:25;;;;;;;1.92;1.83;;;23.00;58.70;;;;;;4907637;29;20048;-77
2024/04/07 09:58:52;;;;;;;2.53;1.25;;;23.00;57.80;;;;;;4908981;29;20028;-77
2024/04/07 10:01:21;;;;;;;2.65;1.40;;;22.90;57.60;;;;;;4913576;29;20024;-78
2024/04/07 10:03:48;;;;;;;1.02;1.00;;;22.80;57.90;;;;;;4913896;29;20044;-77
2024/04/07 10:06:15;;;;;;;1.40;1.30;;;22.80;59.10;;;;;;4911245;29;20028;-77
2024/04/07 10:08:41;;;;;;;2.17;1.45;;;22.90;58.30;;;;;;4913590;29;20029;-77
2024/04/07 10:11:15;;;;;;;2.35;1.42;;;23.00;59.30;;;;;;4915271;28;20042;-77
2024/04/07 10:13:40;;;;;;;2.15;1.55;;;23.00;59.20;;;;;;4914776;29;20023;-78
2024/04/07 10:16:08;;;;;;;1.88;1.20;;;23.00;57.70;;;;;;4915683;29;20417;-77
2024/04/07 10:18:36;;;;;;;3.88;1.83;;;23.10;57.50;;;;;;4913042;29;20594;-78
2024/04/07 10:21:02;;;;;;;3.92;1.45;;;23.20;57.70;;;;;;4913547;29;20123;-78
2024/04/07 10:23:27;;;;;;;1.88;1.10;;;23.30;58.20;;;;;;4914107;29;20115;-77
2024/04/07 10:26:14;;;;;;;2.00;1.20;;;23.40;56.30;;;;;;4913851;29;20031;-78
2024/04/07 10:28:47;;;;;;;1.92;1.58;;;23.60;57.70;;;;;;4903655;29;20012;-78
2024/04/07 10:31:15;;;;;;;1.67;1.30;;;23.80;57.10;;;;;;4915304;29;20451;-78
2024/04/07 10:33:41;;;;;;;2.15;1.50;;;23.70;55.50;;;;;;4909668;29;20119;-78
2024/04/07 10:36:16;;;;;;;1.60;1.50;;;23.80;56.50;;;;;;4911602;29;20052;-78
2024/04/07 10:38:50;;;;;;;1.63;1.30;;;23.70;54.90;;;;;;4914290;29;20088;-77
2024/04/07 10:41:18;;;;;;;1.70;1.20;;;23.70;56.30;;;;;;4913360;29;20032;-77
2024/04/07 10:43:45;;;;;;;1.27;1.17;;;23.70;55.60;;;;;;4915075;29;20071;-78
2024/04/07 10:46:11;;;;;;;1.63;1.48;;;23.70;56.00;;;;;;4915266;29;20050;-78
2024/04/07 10:48:36;;;;;;;1.38;1.10;;;23.60;54.40;;;;;;4914459;29;20032;-79
2024/04/07 10:51:03;;;;;;;1.35;1.17;;;23.50;55.30;;;;;;4914247;29;20446;-78
2024/04/07 10:53:29;;;;;;;1.48;1.10;;;23.50;55.80;;;;;;4914670;29;20032;-78
2024/04/07 10:55:54;;;;;;;1.30;1.20;;;23.60;55.40;;;;;;4905970;29;20044;-77
2024/04/07 10:58:20;;;;;;;1.00;1.00;;;23.60;55.30;;;;;;4915043;29;20604;-77
2024/04/07 11:00:46;;;;;;;1.67;1.20;;;23.70;56.90;;;;;;4915004;29;20036;-78
2024/04/07 11:03:12;;;;;;;2.80;1.42;;;23.80;54.20;;;;;;4914806;29;20044;-78
2024/04/07 11:05:37;;;;;;;1.58;1.40;;;24.10;55.70;;;;;;4914360;29;20055;-78
2024/04/07 11:08:04;;;;;;;2.88;1.20;;;24.30;55.40;;;;;;4914888;29;20039;-78
2024/04/07 11:10:39;;;;;;;1.65;1.33;;;24.40;53.40;;;;;;4915445;29;20036;-77
2024/04/07 11:13:09;;;;;;;2.20;1.48;;;24.40;55.20;;;;;;4900801;29;20036;-78
2024/04/07 11:15:34;;;;;;;3.22;1.73;;;24.50;53.60;;;;;;4910033;29;20037;-78
2024/04/07 11:18:11;;;;;;;2.42;1.65;;;24.50;53.20;;;;;;4911812;29;20041;-78
2024/04/07 11:20:37;;;;;;;2.75;1.60;;;24.50;54.70;;;;;;4914794;29;20475;-79
2024/04/07 11:23:03;;;;;;;2.47;1.60;;;24.30;53.30;;;;;;4914857;29;20160;-78
2024/04/07 11:25:28;;;;;;;2.55;1.55;;;24.40;54.80;;;;;;4910918;29;20029;-79
2024/04/07 11:27:55;;;;;;;3.40;1.88;;;24.50;53.50;;;;;;4910531;29;20115;-79
2024/04/07 11:30:31;;;;;;;3.30;1.65;;;24.50;53.50;;;;;;4912820;29;20669;-79
2024/04/07 11:33:01;;;;;;;5.80;1.90;;;24.40;52.50;;;;;;4912142;29;20034;-78
2024/04/07 11:35:27;;;;;;;2.63;1.90;;;24.50;53.40;;;;;;4907964;29;20067;-79
2024/04/07 11:37:53;;;;;;;2.28;1.40;;;24.50;52.40;;;;;;4911932;29;20574;-77
2024/04/07 11:40:18;;;;;;;3.00;1.83;;;24.60;54.30;;;;;;4914180;29;20032;-79
2024/04/07 11:42:44;;;;;;;2.75;1.48;;;24.70;52.60;;;;;;4913710;29;20375;-79
2024/04/07 11:45:10;;;;;;;1.90;1.63;;;24.70;53.30;;;;;;4912957;29;20036;-79
2024/04/07 11:47:36;;;;;;;3.30;1.58;;;24.70;53.00;;;;;;4912791;29;20039;-79
2024/04/07 11:50:01;;;;;;;1.85;1.50;;;24.70;52.70;;;;;;4912359;29;20032;-79
2024/04/07 11:52:27;;;;;;;1.88;1.67;;;24.70;51.00;;;;;;4911434;29;20027;-78
2024/04/07 11:54:53;;;;;;;4.85;1.80;;;24.60;52.10;;;;;;4914007;29;20667;-79
2024/04/07 11:57:18;;;;;;;1.40;1.30;;;24.50;51.60;;;;;;4913056;29;20479;-79
2024/04/07 11:59:44;;;;;;;1.95;1.30;;;24.60;52.70;;;;;;4914691;29;20032;-79
2024/04/07 12:02:10;;;;;;;2.22;1.75;;;24.60;51.30;;;;;;4915387;29;20035;-79
2024/04/07 12:04:35;;;;;;;1.67;1.58;;;24.60;51.90;;;;;;4917415;29;20043;-79
2024/04/07 12:07:01;;;;;;;3.22;1.60;;;24.70;52.60;;;;;;4916746;29;20452;-79
2024/04/07 12:09:28;;;;;;;4.18;2.15;;;24.80;53.00;;;;;;4916850;29;20074;-79
2024/04/07 12:11:54;;;;;;;2.08;1.70;;;24.90;52.50;;;;;;4918022;29;20041;-79
2024/04/07 12:14:20;;;;;;;3.20;1.63;;;24.90;52.10;;;;;;4917896;29;20502;-78
2024/04/07 12:16:45;;;;;;;2.85;1.80;;;24.90;52.40;;;;;;4918345;29;20036;-79
2024/04/07 12:19:13;;;;;;;2.88;1.67;;;24.90;51.80;;;;;;4918089;29;20036;-79
2024/04/07 12:21:39;;;;;;;5.53;1.90;;;25.00;52.10;;;;;;4917833;29;20031;-79
2024/04/07 12:24:04;;;;;;;2.20;1.48;;;25.10;50.50;;;;;;4917022;29;20029;-79
2024/04/07 12:26:30;;;;;;;2.45;1.42;;;25.10;50.90;;;;;;4917322;29;20039;-79
2024/04/07 12:28:57;;;;;;;1.50;1.40;;;25.20;51.60;;;;;;4917414;29;20028;-79
2024/04/07 12:31:23;;;;;;;1.98;1.80;;;25.20;50.70;;;;;;4916640;29;20047;-79
2024/04/07 12:33:49;;;;;;;2.00;1.58;;;25.20;50.20;;;;;;4917354;29;20432;-79
2024/04/07 12:36:16;;;;;;;3.85;1.70;;;25.30;52.20;;;;;;4917318;29;20446;-79
2024/04/07 12:38:41;;;;;;;2.15;1.92;;;25.40;51.90;;;;;;4917045;29;20406;-79
2024/04/07 12:41:07;;;;;;;3.90;1.70;;;25.50;50.90;;;;;;4917477;29;20032;-79
2024/04/07 12:43:33;;;;;;;1.30;1.20;;;25.60;50.10;;;;;;4916492;29;20567;-79
2024/04/07 12:45:58;;;;;;;2.35;1.60;;;25.70;49.40;;;;;;4915721;29;20459;-79